Time;durP1;ratioP1;P1;durP2;ratioP2;P2;SDS_P1;SDS_P2;PMS_P1;PMS_P2;Temp;Humidity;BMP_temperature;BMP_pressure;BME280_temperature;BME280_humidity;BME280_pressure;Samples;Min_cycle;Max_cycle;Signal;HPM_P1;HPM_P2
2023/09/28 00:02:00;;;;;;;11.30;8.70;;;;;;;12.21;91.44;97957.71;110149;1244;59761;-61
2023/09/28 00:04:32;;;;;;;;;;;;;;;12.19;87.58;97956.59;110079;1244;59710;-61
2023/09/28 00:07:03;;;;;;;10.90;6.60;;;;;;;12.13;91.94;97952.98;109868;1245;71394;-61
2023/09/28 00:09:32;;;;;;;11.20;9.20;;;;;;;12.08;92.25;97953.89;110052;1245;69833;-61
2023/09/28 00:12:03;;;;;;;10.60;9.20;;;;;;;12.04;86.38;97954.17;110126;1245;69321;-60
2023/09/28 00:14:34;;;;;;;10.90;8.60;;;;;;;12.00;84.87;97952.73;110045;1244;59747;-60
2023/09/28 00:17:08;;;;;;;10.70;8.70;;;;;;;11.95;85.47;97950.65;110031;1245;59709;-60
2023/09/28 00:19:39;;;;;;;11.00;8.40;;;;;;;11.89;88.56;97955.02;109810;1251;71389;-61
2023/09/28 00:22:12;;;;;;;10.40;7.10;;;;;;;11.86;87.41;97955.29;110057;1241;68536;-60
2023/09/28 00:24:43;;;;;;;11.50;8.20;;;;;;;11.82;91.53;97954.80;110029;1242;69340;-60
2023/09/28 00:27:14;;;;;;;8.90;7.60;;;;;;;11.79;85.25;97955.06;110068;1245;59681;-62
2023/09/28 00:29:46;;;;;;;10.10;7.00;;;;;;;11.75;86.37;97954.42;110122;1243;59676;-61
2023/09/28 00:32:18;;;;;;;8.80;6.50;;;;;;;11.72;88.77;97950.45;110000;1245;71372;-61
2023/09/28 00:34:49;;;;;;;9.90;7.10;;;;;;;11.69;85.71;97955.50;110068;1244;68405;-61
2023/09/28 00:37:21;;;;;;;8.20;7.20;;;;;;;11.67;86.88;97956.18;109955;1245;69374;-61
2023/09/28 00:39:55;;;;;;;9.30;7.80;;;;;;;11.63;86.95;97956.14;109876;1246;59720;-61
2023/09/28 00:42:28;;;;;;;7.70;6.50;;;;;;;11.58;90.88;97955.77;110131;1241;59669;-61
2023/09/28 00:45:00;;;;;;;10.50;8.70;;;;;;;11.54;91.71;97956.20;110090;1243;71282;-61
2023/09/28 00:47:38;;;;;;;10.30;8.10;;;;;;;11.49;90.95;97954.77;110119;1246;69430;-61
2023/09/28 00:50:17;;;;;;;12.90;9.30;;;;;;;11.46;94.48;97961.79;109952;1244;69318;-61
2023/09/28 00:52:57;;;;;;;13.30;9.00;;;;;;;11.42;92.17;97963.30;109885;1245;59761;-61
2023/09/28 00:55:30;;;;;;;11.70;9.60;;;;;;;11.38;94.75;97963.71;109857;1245;59637;-61
2023/09/28 00:58:05;;;;;;;10.90;8.90;;;;;;;11.37;95.55;97961.55;109894;1245;71405;-61
2023/09/28 01:00:36;;;;;;;11.80;9.50;;;;;;;11.37;95.77;97965.20;110025;1241;69184;-61
2023/09/28 01:03:07;;;;;;;10.40;8.30;;;;;;;11.35;99.02;97967.63;110091;1245;69841;-61
2023/09/28 01:05:40;;;;;;;15.80;10.40;;;;;;;11.34;96.96;97962.13;109974;1244;59779;-61
2023/09/28 01:08:19;;;;;;;10.10;8.80;;;;;;;11.34;94.76;97962.95;109994;1245;59746;-61
2023/09/28 01:10:50;;;;;;;10.00;8.40;;;;;;;11.34;97.96;97965.21;110071;1245;71840;-61
2023/09/28 01:13:23;;;;;;;9.00;8.00;;;;;;;11.34;97.41;97966.84;110109;1244;68545;-61
2023/09/28 01:15:54;;;;;;;8.60;7.70;;;;;;;11.31;97.26;97964.23;110145;1246;69202;-61
2023/09/28 01:18:25;;;;;;;11.20;7.90;;;;;;;11.29;98.91;97966.79;110157;1245;59693;-61
2023/09/28 01:20:58;;;;;;;9.30;8.00;;;;;;;11.28;93.56;97963.22;110123;1245;59633;-61
2023/09/28 01:23:29;;;;;;;12.00;9.40;;;;;;;11.24;89.41;97965.58;109954;1244;71223;-61
2023/09/28 01:26:01;;;;;;;11.00;9.70;;;;;;;11.18;92.70;97967.70;110159;1245;69260;-62
2023/09/28 01:28:34;;;;;;;13.20;10.40;;;;;;;11.13;91.07;97967.52;110119;1241;68480;-61
2023/09/28 01:31:04;;;;;;;12.60;9.30;;;;;;;11.09;90.77;97967.27;110076;1244;60007;-62
2023/09/28 01:33:37;;;;;;;10.80;8.50;;;;;;;11.06;92.05;97966.91;109898;1245;59748;-61
2023/09/28 01:36:09;;;;;;;14.50;10.40;;;;;;;11.03;89.87;97966.77;110112;1244;72160;-60
2023/09/28 01:38:44;;;;;;;12.90;10.50;;;;;;;10.99;94.51;97963.41;109986;1244;69116;-61
2023/09/28 01:41:13;;;;;;;12.60;8.80;;;;;;;10.95;94.30;97962.22;109958;1243;70039;-61
2023/09/28 01:43:43;;;;;;;;;;;;;;;10.92;91.12;97962.05;110033;1244;59769;-60
2023/09/28 01:46:13;;;;;;;11.80;8.10;;;;;;;10.88;91.11;97967.76;109978;1245;59722;-60
2023/09/28 01:48:43;;;;;;;12.10;9.30;;;;;;;10.81;95.90;97964.36;110105;1244;70666;-61
2023/09/28 01:51:14;;;;;;;9.60;7.30;;;;;;;10.76;98.56;97967.30;109987;1244;69189;-60
2023/09/28 01:53:46;;;;;;;11.70;9.50;;;;;;;10.73;94.44;97968.23;110054;1244;68590;-62
2023/09/28 01:56:18;;;;;;;13.60;10.50;;;;;;;10.68;90.76;97964.71;110125;1245;59707;-60
2023/09/28 01:58:49;;;;;;;16.40;12.40;;;;;;;10.58;93.43;97964.96;109790;1245;59709;-60
2023/09/28 02:01:26;;;;;;;12.80;10.50;;;;;;;10.51;93.68;97966.83;109964;1244;70795;-60
2023/09/28 02:03:57;;;;;;;14.60;12.00;;;;;;;10.43;96.54;97966.10;110001;1244;68506;-61
2023/09/28 02:06:30;;;;;;;15.10;12.20;;;;;;;10.39;99.00;97967.44;110118;1242;67440;-60
2023/09/28 02:09:02;;;;;;;14.80;11.60;;;;;;;10.36;96.05;97967.93;109990;1244;59670;-60
2023/09/28 02:11:33;;;;;;;17.60;14.20;;;;;;;10.31;95.40;97973.34;110065;1244;59749;-60
2023/09/28 02:14:05;;;;;;;16.30;12.20;;;;;;;10.24;97.74;97971.83;110037;1244;71963;-60
2023/09/28 02:16:36;;;;;;;14.40;11.20;;;;;;;10.15;99.92;97970.29;109844;1244;68303;-60
2023/09/28 02:19:10;;;;;;;13.70;9.90;;;;;;;10.10;100.00;97970.42;109810;1251;69106;-60
2023/09/28 02:21:42;;;;;;;10.70;9.50;;;;;;;10.08;98.67;97972.31;109928;1245;59707;-60
2023/09/28 02:24:12;;;;;;;13.50;10.10;;;;;;;10.05;98.67;97971.94;109935;1244;59691;-60
2023/09/28 02:26:47;;;;;;;13.90;10.80;;;;;;;10.02;98.10;97974.73;110054;1241;70670;-60
2023/09/28 02:29:17;;;;;;;11.80;9.70;;;;;;;9.97;97.16;97982.69;110095;1241;68829;-60
2023/09/28 02:31:48;;;;;;;;;;;;;;;9.93;98.27;97980.88;110045;1242;68812;-60
2023/09/28 02:34:18;;;;;;;13.60;10.00;;;;;;;9.88;99.88;97977.66;110014;1245;59714;-60
2023/09/28 02:36:48;;;;;;;;;;;;;;;9.86;97.36;97979.20;109988;1244;59706;-60
2023/09/28 02:39:20;;;;;;;11.50;9.60;;;;;;;9.80;97.58;97981.48;109752;1244;70508;-60
2023/09/28 02:41:50;;;;;;;11.10;9.10;;;;;;;9.75;99.53;97983.70;109817;1244;69130;-60
2023/09/28 02:44:27;;;;;;;12.10;10.40;;;;;;;9.71;100.00;97985.83;109821;1244;69297;-60
2023/09/28 02:46:58;;;;;;;13.10;9.90;;;;;;;9.69;100.00;97983.02;109978;1244;59683;-60
2023/09/28 02:49:28;;;;;;;14.10;11.20;;;;;;;9.66;99.23;97981.45;109981;1244;59663;-60
2023/09/28 02:51:59;;;;;;;16.70;13.00;;;;;;;9.64;98.77;97986.42;109934;1244;70679;-60
2023/09/28 02:54:33;;;;;;;13.80;10.90;;;;;;;9.62;100.00;97982.04;109838;1244;69291;-60
2023/09/28 02:57:04;;;;;;;14.50;12.30;;;;;;;9.60;100.00;97981.30;109752;1244;69264;-60
2023/09/28 02:59:36;;;;;;;13.20;11.20;;;;;;;9.58;100.00;97984.20;109809;1244;59710;-60
2023/09/28 03:02:08;;;;;;;13.80;11.70;;;;;;;9.56;100.00;97984.65;109821;1244;59749;-60
2023/09/28 03:04:39;;;;;;;17.10;13.60;;;;;;;9.57;100.00;97989.65;109802;1244;70613;-60
2023/09/28 03:07:09;;;;;;;16.00;12.30;;;;;;;9.55;100.00;97991.33;109970;1241;68376;-60
2023/09/28 03:09:40;;;;;;;15.70;11.20;;;;;;;9.49;100.00;97989.05;110088;1245;69432;-60
2023/09/28 03:12:11;;;;;;;13.30;10.70;;;;;;;9.43;100.00;97988.39;110042;1246;60094;-60
2023/09/28 03:14:42;;;;;;;13.30;10.60;;;;;;;9.40;100.00;97988.40;110110;1241;59737;-60
2023/09/28 03:17:12;;;;;;;13.80;11.10;;;;;;;9.38;100.00;97992.16;110096;1244;70742;-61
2023/09/28 03:19:42;;;;;;;;;;;;;;;9.38;100.00;97995.48;109904;1244;69241;-60
2023/09/28 03:22:12;;;;;;;17.90;13.20;;;;;;;9.37;100.00;97997.42;109818;1243;69437;-60
2023/09/28 03:24:42;;;;;;;16.50;12.40;;;;;;;9.37;100.00;97997.77;109843;1244;59939;-61
2023/09/28 03:27:12;;;;;;;;;;;;;;;9.38;100.00;97996.17;110055;1241;59741;-61
2023/09/28 03:29:42;;;;;;;15.80;12.40;;;;;;;9.37;100.00;97998.16;110118;1244;72155;-62
2023/09/28 03:32:13;;;;;;;18.40;14.20;;;;;;;9.34;100.00;98001.59;110088;1251;68112;-61
2023/09/28 03:34:43;;;;;;;14.90;11.80;;;;;;;9.30;100.00;98000.95;110126;1244;70157;-61
2023/09/28 03:37:18;;;;;;;14.70;12.00;;;;;;;9.26;100.00;98002.62;110129;1241;59701;-62
2023/09/28 03:39:51;;;;;;;14.00;11.00;;;;;;;9.21;100.00;98002.73;110041;1244;59673;-61
2023/09/28 03:42:21;;;;;;;11.70;9.40;;;;;;;9.17;100.00;97994.06;109855;1253;70862;-62
2023/09/28 03:44:51;;;;;;;16.60;12.20;;;;;;;9.17;100.00;97999.66;110003;1244;70311;-62
2023/09/28 03:47:21;;;;;;;11.30;9.90;;;;;;;9.18;100.00;98002.16;109870;1244;68360;-62
2023/09/28 03:49:50;;;;;;;13.10;9.90;;;;;;;9.19;100.00;97992.36;110063;1244;59713;-60
2023/09/28 03:52:20;;;;;;;13.10;9.60;;;;;;;9.20;100.00;97995.47;110029;1245;59691;-62
2023/09/28 03:54:50;;;;;;;;;;;;;;;9.21;100.00;97998.90;109948;1244;70471;-60
2023/09/28 03:57:20;;;;;;;11.60;9.10;;;;;;;9.21;100.00;97998.38;109836;1244;69752;-61
2023/09/28 03:59:50;;;;;;;13.00;10.00;;;;;;;9.20;100.00;97999.81;110031;1244;70009;-60
2023/09/28 04:02:21;;;;;;;12.20;9.30;;;;;;;9.19;100.00;98000.71;110116;1241;59681;-61
2023/09/28 04:04:52;;;;;;;12.20;9.70;;;;;;;9.19;100.00;98004.53;110100;1244;59688;-62
2023/09/28 04:07:21;;;;;;;;;;;;;;;9.17;100.00;98007.27;110069;1244;71291;-61
2023/09/28 04:09:52;;;;;;;15.20;9.20;;;;;;;9.14;100.00;98005.02;110056;1244;69233;-60
2023/09/28 04:12:21;;;;;;;14.70;9.20;;;;;;;9.11;100.00;98010.58;109921;1244;68706;-62
2023/09/28 04:14:50;;;;;;;14.50;9.10;;;;;;;9.09;100.00;97997.15;109844;1244;59720;-60
2023/09/28 04:17:19;;;;;;;13.60;9.10;;;;;;;9.08;100.00;98001.90;109770;1244;59732;-60
2023/09/28 04:19:49;;;;;;;17.40;13.50;;;;;;;9.07;100.00;98006.85;109928;1246;71949;-60
2023/09/28 04:22:19;;;;;;;14.20;9.50;;;;;;;9.05;100.00;98008.33;110048;1241;68520;-60
2023/09/28 04:24:48;;;;;;;12.20;9.90;;;;;;;9.02;100.00;98004.67;110078;1244;69756;-60
2023/09/28 04:27:18;;;;;;;15.80;10.80;;;;;;;9.03;100.00;98007.23;110044;1241;59746;-60
2023/09/28 04:29:48;;;;;;;13.70;9.60;;;;;;;9.02;100.00;97998.26;110044;1244;59699;-60
2023/09/28 04:32:17;;;;;;;12.00;8.50;;;;;;;9.03;100.00;97993.30;109879;1243;71995;-60
2023/09/28 04:34:47;;;;;;;12.20;8.50;;;;;;;9.07;100.00;97993.27;109800;1244;68514;-60
2023/09/28 04:37:16;;;;;;;15.90;12.60;;;;;;;9.12;100.00;97995.57;109899;1244;69660;-60
2023/09/28 04:39:46;;;;;;;11.90;9.30;;;;;;;9.17;100.00;97998.05;110111;1244;59651;-60
2023/09/28 04:42:16;;;;;;;14.40;10.90;;;;;;;9.22;100.00;98000.06;110053;1241;59670;-60
2023/09/28 04:44:46;;;;;;;12.70;9.10;;;;;;;9.26;100.00;98000.38;110061;1241;70646;-60
2023/09/28 04:47:16;;;;;;;12.10;8.90;;;;;;;9.30;100.00;97999.74;110093;1244;68750;-60
2023/09/28 04:49:46;;;;;;;12.20;8.40;;;;;;;9.35;100.00;97999.66;110013;1243;68327;-60
2023/09/28 04:52:17;;;;;;;14.80;9.50;;;;;;;9.37;100.00;98006.84;110022;1244;59752;-61
2023/09/28 04:54:47;;;;;;;11.20;8.20;;;;;;;9.40;100.00;98002.33;110093;1244;59690;-60
2023/09/28 04:57:19;;;;;;;11.40;8.50;;;;;;;9.48;100.00;98003.39;110101;1245;71960;-60
2023/09/28 04:59:49;;;;;;;10.50;8.50;;;;;;;9.62;100.00;98005.14;110066;1244;69462;-61
2023/09/28 05:02:20;;;;;;;9.90;8.30;;;;;;;9.80;100.00;98004.32;110054;1241;69255;-60
2023/09/28 05:04:50;;;;;;;10.90;8.60;;;;;;;9.96;100.00;97998.12;110048;1241;59743;-60
2023/09/28 05:07:19;;;;;;;9.50;8.30;;;;;;;10.13;100.00;98005.79;110047;1245;61082;-60
2023/09/28 05:09:49;;;;;;;17.60;11.30;;;;;;;10.36;100.00;98009.08;110091;1241;71414;-60
2023/09/28 05:12:18;;;;;;;13.30;10.10;;;;;;;10.58;100.00;98011.30;110100;1244;69043;-61
2023/09/28 05:14:48;;;;;;;11.10;9.10;;;;;;;10.77;100.00;98010.29;110077;1244;69812;-60
2023/09/28 05:17:19;;;;;;;11.60;8.70;;;;;;;10.97;100.00;98017.20;110044;1244;59670;-61
2023/09/28 05:19:48;;;;;;;12.00;10.10;;;;;;;11.13;100.00;98013.75;110106;1241;60007;-61
2023/09/28 05:22:18;;;;;;;14.20;12.00;;;;;;;11.32;100.00;98022.06;110078;1241;71418;-61
2023/09/28 05:24:48;;;;;;;13.60;10.30;;;;;;;11.57;100.00;98019.51;110019;1241;68612;-61
2023/09/28 05:27:17;;;;;;;11.80;10.00;;;;;;;11.83;100.00;98017.63;110012;1241;69660;-62
2023/09/28 05:29:47;;;;;;;;;;;;;;;12.00;99.28;98018.41;110112;1244;59681;-60
2023/09/28 05:32:17;;;;;;;17.60;11.70;;;;;;;12.13;98.45;98021.70;110070;1243;59705;-61
2023/09/28 05:34:46;;;;;;;;;;;;;;;12.30;99.08;98022.98;110153;1244;71491;-60
2023/09/28 05:37:16;;;;;;;17.50;12.60;;;;;;;12.45;96.82;98021.67;110095;1241;69796;-60
2023/09/28 05:39:45;;;;;;;15.20;10.50;;;;;;;12.49;96.29;98021.25;110067;1244;69901;-61
2023/09/28 05:42:15;;;;;;;15.20;12.80;;;;;;;12.65;95.69;98020.43;110055;1249;59741;-60
2023/09/28 05:44:44;;;;;;;13.20;11.00;;;;;;;12.81;95.66;98026.01;110101;1245;59766;-60
2023/09/28 05:47:14;;;;;;;15.10;11.20;;;;;;;12.97;93.97;98028.30;110081;1244;72340;-60
2023/09/28 05:49:49;;;;;;;15.00;10.50;;;;;;;13.15;92.83;98032.02;110069;1244;69685;-62
2023/09/28 05:52:19;;;;;;;11.80;10.00;;;;;;;13.40;92.37;98030.63;110073;1243;69270;-62
2023/09/28 05:54:49;;;;;;;12.30;9.80;;;;;;;13.78;94.05;98033.01;110063;1244;59720;-61
2023/09/28 05:57:21;;;;;;;15.00;10.30;;;;;;;14.16;92.18;98036.73;110046;1242;59753;-61
2023/09/28 05:59:50;;;;;;;15.50;12.60;;;;;;;14.45;86.46;98034.80;110097;1244;71381;-61
2023/09/28 06:02:19;;;;;;;14.60;12.90;;;;;;;14.57;84.24;98031.06;110108;1242;69310;-61
2023/09/28 06:04:52;;;;;;;13.70;11.20;;;;;;;14.84;84.77;98030.33;110044;1244;69901;-61
2023/09/28 06:07:23;;;;;;;12.80;11.30;;;;;;;15.15;84.39;98030.08;110082;1244;59783;-61
2023/09/28 06:09:53;;;;;;;15.20;13.50;;;;;;;15.56;85.89;98031.27;110124;1241;59782;-61
2023/09/28 06:12:22;;;;;;;14.20;11.70;;;;;;;15.82;83.46;98031.94;110092;1241;71321;-62
2023/09/28 06:14:52;;;;;;;15.20;11.50;;;;;;;16.02;81.71;98034.64;110062;1244;69249;-62
2023/09/28 06:17:23;;;;;;;19.40;13.70;;;;;;;16.26;79.96;98032.80;110077;1245;69281;-62
2023/09/28 06:19:53;;;;;;;14.20;10.20;;;;;;;16.25;77.55;98029.90;110073;1244;59703;-60
2023/09/28 06:22:26;;;;;;;16.00;10.50;;;;;;;16.50;77.84;98033.52;110032;1244;59652;-62
2023/09/28 06:24:56;;;;;;;12.10;9.20;;;;;;;16.78;75.95;98032.60;110046;1244;72030;-62
2023/09/28 06:27:26;;;;;;;;;;;;;;;17.19;75.99;98036.08;110074;1243;68584;-61
2023/09/28 06:29:55;;;;;;;;;;;;;;;17.30;70.97;98034.85;110046;1244;70023;-62
2023/09/28 06:32:25;;;;;;;9.00;8.00;;;;;;;17.61;70.46;98034.52;110063;1243;59691;-62
2023/09/28 06:34:55;;;;;;;10.30;8.70;;;;;;;17.99;71.49;98035.98;110031;1241;59767;-62
2023/09/28 06:37:24;;;;;;;11.40;9.90;;;;;;;18.32;69.05;98032.48;110050;1244;71124;-59
2023/09/28 06:39:54;;;;;;;16.10;10.40;;;;;;;18.49;68.87;98032.81;110095;1244;69837;-61
2023/09/28 06:42:23;;;;;;;12.70;9.40;;;;;;;18.64;68.82;98034.79;110042;1244;69228;-62
2023/09/28 06:45:07;;;;;;;10.20;9.20;;;;;;;18.91;67.09;98031.84;110097;1244;59768;-60
2023/09/28 06:47:36;;;;;;;9.40;8.40;;;;;;;19.14;66.22;98032.55;110128;1244;59699;-62
2023/09/28 06:50:27;;;;;;;11.80;9.60;;;;;;;19.50;63.00;98038.73;110039;1241;71967;-62
2023/09/28 06:52:57;;;;;;;11.20;9.10;;;;;;;19.61;63.13;98036.61;110080;1241;68715;-61
2023/09/28 06:55:27;;;;;;;11.80;10.10;;;;;;;19.91;61.26;98039.90;110044;1244;69768;-61
2023/09/28 06:57:57;;;;;;;10.60;8.80;;;;;;;20.16;61.00;98034.52;110067;1245;59757;-61
2023/09/28 07:00:29;;;;;;;10.10;7.90;;;;;;;20.44;60.03;98031.83;110073;1244;59708;-61
2023/09/28 07:02:59;;;;;;;14.40;8.00;;;;;;;20.95;58.37;98028.20;110081;1243;72042;-60
2023/09/28 07:05:29;;;;;;;9.60;8.20;;;;;;;21.13;57.29;98031.92;110047;1241;69199;-60
2023/09/28 07:08:00;;;;;;;8.70;7.80;;;;;;;21.56;56.49;98031.58;110078;1244;69329;-62
2023/09/28 07:10:30;;;;;;;9.30;7.80;;;;;;;21.74;54.17;98026.95;110086;1245;59727;-61
2023/09/28 07:13:01;;;;;;;9.50;7.60;;;;;;;22.10;53.72;98028.19;109853;1244;59758;-61
2023/09/28 07:15:33;;;;;;;8.60;6.90;;;;;;;22.72;55.08;98025.70;110080;1241;71956;-62
2023/09/28 07:18:03;;;;;;;9.80;8.90;;;;;;;23.00;52.84;98025.67;110101;1244;69219;-61
2023/09/28 07:20:36;;;;;;;9.60;8.30;;;;;;;22.89;50.95;98027.71;110052;1244;69665;-62
2023/09/28 07:23:07;;;;;;;8.50;7.30;;;;;;;22.83;51.27;98033.27;110069;1241;59734;-62
2023/09/28 07:25:37;;;;;;;9.70;7.90;;;;;;;23.13;51.23;98034.36;110085;1244;59686;-62
2023/09/28 07:28:06;;;;;;;8.30;7.00;;;;;;;22.98;49.67;98032.16;110171;1243;71726;-62
2023/09/28 07:30:36;;;;;;;9.20;7.10;;;;;;;22.71;48.88;98036.24;110086;1241;69328;-62
2023/09/28 07:33:05;;;;;;;;;;;;;;;23.24;49.99;98034.86;110096;1244;69591;-61
2023/09/28 07:35:34;;;;;;;10.60;7.20;;;;;;;23.58;47.39;98034.98;110101;1244;59689;-61
2023/09/28 07:38:04;;;;;;;7.90;6.20;;;;;;;23.39;46.74;98036.69;110070;1244;59702;-61
2023/09/28 07:40:33;;;;;;;8.80;6.50;;;;;;;23.29;47.15;98035.70;110088;1243;72043;-61
2023/09/28 07:43:16;;;;;;;7.50;6.10;;;;;;;23.66;46.64;98036.90;110110;1244;69304;-61
2023/09/28 07:45:46;;;;;;;7.60;6.80;;;;;;;23.96;46.00;98032.69;110051;1244;69889;-61
2023/09/28 07:48:16;;;;;;;8.70;7.10;;;;;;;23.77;45.20;98035.77;109854;1244;59713;-61
2023/09/28 07:50:45;;;;;;;7.10;6.10;;;;;;;23.68;45.35;98032.59;110078;1244;59683;-60
2023/09/28 07:53:14;;;;;;;;;;;;;;;23.53;45.79;98030.22;110067;1245;71309;-62
2023/09/28 07:55:43;;;;;;;11.60;7.80;;;;;;;23.33;46.40;98029.70;110081;1244;69110;-62
2023/09/28 07:58:14;;;;;;;11.40;8.00;;;;;;;23.25;46.25;98029.25;110094;1244;68558;-60
2023/09/28 08:00:55;;;;;;;11.60;8.10;;;;;;;22.78;46.63;98029.45;110100;1241;59765;-60
2023/09/28 08:03:26;;;;;;;12.60;7.80;;;;;;;22.61;46.96;98027.59;110110;1244;59715;-60
2023/09/28 08:05:56;;;;;;;11.80;7.90;;;;;;;22.51;47.01;98027.57;110081;1241;71491;-60
2023/09/28 08:08:27;;;;;;;12.10;8.10;;;;;;;22.82;46.81;98025.96;110068;1241;68392;-60
2023/09/28 08:10:57;;;;;;;10.30;7.20;;;;;;;23.19;46.07;98023.02;110084;1243;68642;-60
2023/09/28 08:13:27;;;;;;;10.70;6.70;;;;;;;23.55;46.27;98021.87;110070;1241;59758;-59
2023/09/28 08:15:58;;;;;;;7.40;6.20;;;;;;;24.13;45.39;98022.50;110093;1244;59679;-60
2023/09/28 08:18:28;;;;;;;9.80;7.30;;;;;;;24.37;43.83;98018.63;110072;1244;71383;-63
2023/09/28 08:20:57;;;;;;;8.90;7.20;;;;;;;24.36;43.15;98014.81;110135;1246;69417;-61
2023/09/28 08:23:38;;;;;;;9.20;7.40;;;;;;;24.59;43.15;98014.31;110107;1244;69882;-61
2023/09/28 08:26:10;;;;;;;7.50;6.20;;;;;;;24.31;43.47;98013.98;110085;1244;59761;-61
2023/09/28 08:28:41;;;;;;;7.40;6.70;;;;;;;24.74;43.11;98010.41;110101;1244;59669;-61
2023/09/28 08:31:10;;;;;;;7.20;6.50;;;;;;;24.75;42.74;98009.55;110097;1244;70436;-61
2023/09/28 08:33:40;;;;;;;7.20;6.50;;;;;;;25.62;42.16;98010.22;110084;1244;70265;-61
2023/09/28 08:36:09;;;;;;;8.10;7.10;;;;;;;26.39;42.04;98005.71;110073;1244;69469;-61
2023/09/28 08:38:38;;;;;;;;;;;;;;;26.62;40.36;98001.35;110088;1244;59845;-61
2023/09/28 08:41:10;;;;;;;8.10;6.40;;;;;;;26.80;39.63;97994.23;110060;1244;59719;-61
2023/09/28 08:43:46;;;;;;;7.80;6.30;;;;;;;27.58;38.88;97992.80;110115;1244;71542;-60
2023/09/28 08:46:20;;;;;;;8.90;6.00;;;;;;;27.61;38.26;97990.66;110089;1244;69236;-60
2023/09/28 08:49:14;;;;;;;6.60;5.90;;;;;;;27.67;37.83;97988.67;110072;1244;69951;-61
2023/09/28 08:51:45;;;;;;;8.10;6.90;;;;;;;28.12;37.64;97985.52;110095;1242;59710;-61
2023/09/28 08:54:17;;;;;;;8.70;6.50;;;;;;;28.34;36.68;97982.71;110086;1244;59822;-61
2023/09/28 08:56:48;;;;;;;6.90;5.90;;;;;;;28.52;37.18;97979.44;110072;1244;72119;-61
2023/09/28 08:59:19;;;;;;;6.80;6.00;;;;;;;28.83;36.48;97976.92;110076;1244;69794;-61
2023/09/28 09:01:51;;;;;;;9.40;6.70;;;;;;;28.69;35.22;97973.21;110124;1243;69325;-61
2023/09/28 09:04:20;;;;;;;8.80;6.60;;;;;;;28.28;36.15;97968.88;110066;1242;60006;-62
2023/09/28 09:06:49;;;;;;;7.30;5.80;;;;;;;28.33;36.24;97969.94;109850;1244;426907;-62
2023/09/28 09:09:18;;;;;;;7.50;5.90;;;;;;;28.13;35.95;97969.48;110136;1244;71451;-62
2023/09/28 09:11:52;;;;;;;8.20;6.40;;;;;;;28.81;35.87;97964.23;110080;1241;69793;-62
2023/09/28 09:14:27;;;;;;;8.70;5.90;;;;;;;29.23;34.05;97964.59;110085;1244;69324;-62
2023/09/28 09:16:58;;;;;;;7.20;5.40;;;;;;;29.49;33.98;97960.27;110055;1244;59729;-60
2023/09/28 09:19:32;;;;;;;6.80;5.50;;;;;;;29.97;32.01;97959.33;110057;1241;59745;-60
2023/09/28 09:22:04;;;;;;;7.20;5.60;;;;;;;30.33;31.32;97953.09;110067;1243;72007;-61
2023/09/28 09:24:53;;;;;;;5.30;4.80;;;;;;;31.12;28.95;97943.27;110075;1243;68677;-62
2023/09/28 09:27:29;;;;;;;7.90;5.20;;;;;;;31.74;28.55;97944.10;110044;1244;68849;-60
2023/09/28 09:30:08;;;;;;;6.00;4.70;;;;;;;31.86;28.14;97944.55;110059;1243;59687;-61
2023/09/28 09:32:39;;;;;;;4.90;4.40;;;;;;;32.22;27.67;97940.84;110080;1241;59760;-60
2023/09/28 09:35:10;;;;;;;5.20;3.90;;;;;;;32.54;26.65;97937.38;110060;1244;70803;-61
2023/09/28 09:37:44;;;;;;;5.40;4.20;;;;;;;32.88;25.51;97934.79;110072;1244;68428;-61
2023/09/28 09:40:15;;;;;;;5.60;4.90;;;;;;;33.47;26.44;97937.06;110076;1243;68607;-61
2023/09/28 09:42:44;;;;;;;5.30;4.10;;;;;;;33.97;25.89;97931.52;110041;1242;59714;-60
2023/09/28 09:45:14;;;;;;;5.80;4.70;;;;;;;34.49;26.46;97930.70;110044;1244;59744;-60
2023/09/28 09:47:46;;;;;;;4.90;4.40;;;;;;;35.03;24.60;97923.96;110083;1244;71472;-60
2023/09/28 09:50:18;;;;;;;5.90;4.10;;;;;;;34.88;24.37;97917.58;110087;1243;69222;-61
2023/09/28 09:52:47;;;;;;;4.50;4.10;;;;;;;35.47;23.71;97917.83;110044;1243;69905;-61
2023/09/28 09:55:17;;;;;;;6.20;5.10;;;;;;;35.06;23.09;97909.20;110087;1241;59714;-61
2023/09/28 09:57:55;;;;;;;6.10;5.30;;;;;;;35.45;23.62;97912.05;110092;1244;59762;-60
2023/09/28 10:00:31;;;;;;;5.40;4.70;;;;;;;35.18;24.55;97914.00;110042;1241;72018;-61
2023/09/28 10:03:01;;;;;;;6.10;4.60;;;;;;;35.53;23.67;97914.68;110084;1244;69377;-60
2023/09/28 10:05:32;;;;;;;6.30;4.70;;;;;;;35.74;22.71;97903.52;110084;1243;69611;-60
2023/09/28 10:08:03;;;;;;;5.70;4.90;;;;;;;35.50;23.54;97909.17;109830;1248;59699;-60
2023/09/28 10:10:34;;;;;;;5.90;4.90;;;;;;;35.64;23.45;97905.56;110138;1243;59715;-60
2023/09/28 10:13:05;;;;;;;6.50;4.30;;;;;;;35.35;21.88;97896.41;110053;1244;71493;-60
2023/09/28 10:15:34;;;;;;;5.10;4.70;;;;;;;35.20;22.18;97903.04;110085;1243;67835;-62
2023/09/28 10:18:05;;;;;;;6.10;4.70;;;;;;;35.15;21.45;97899.45;110070;1241;69788;-60
2023/09/28 10:20:35;;;;;;;4.70;4.30;;;;;;;34.80;22.21;97901.95;110080;1241;59733;-61
2023/09/28 10:23:13;;;;;;;4.50;4.10;;;;;;;35.38;20.84;97900.92;110078;1244;59752;-62
2023/09/28 10:26:12;;;;;;;5.00;4.30;;;;;;;35.39;20.60;97900.05;109866;1244;71413;-60
2023/09/28 10:29:00;;;;;;;6.50;4.50;;;;;;;35.48;20.22;97895.95;109782;1244;70229;-61
2023/09/28 10:31:31;;;;;;;7.20;4.50;;;;;;;35.57;19.93;97897.55;109790;1244;70012;-60
2023/09/28 10:34:22;;;;;;;4.90;4.40;;;;;;;35.15;20.57;97892.33;109741;1244;59748;-61
2023/09/28 10:37:18;;;;;;;6.40;4.80;;;;;;;34.83;20.95;97896.36;109739;1244;59719;-60
2023/09/28 10:39:54;;;;;;;5.40;4.20;;;;;;;34.29;21.38;97896.30;109754;1244;71992;-61
2023/09/28 10:42:23;;;;;;;4.80;4.30;;;;;;;33.70;21.50;97899.76;109950;1243;69304;-61
2023/09/28 10:44:55;;;;;;;4.30;3.90;;;;;;;33.27;22.18;97889.52;109784;1244;68528;-61
2023/09/28 10:47:25;;;;;;;5.40;4.60;;;;;;;33.25;23.15;97890.40;109890;1244;60116;-62
2023/09/28 10:49:59;;;;;;;4.90;4.00;;;;;;;33.95;22.26;97886.25;109831;1244;59679;-62
2023/09/28 10:52:29;;;;;;;5.10;4.10;;;;;;;34.34;21.59;97879.65;109843;1243;71980;-61
2023/09/28 10:54:57;;;;;;;6.10;4.80;;;;;;;34.17;21.74;97878.42;109879;1244;69236;-60
2023/09/28 10:57:33;;;;;;;4.80;3.80;;;;;;;33.70;22.20;97874.59;109936;1244;69816;-60
2023/09/28 11:00:04;;;;;;;5.40;4.50;;;;;;;33.17;22.53;97874.79;109938;1243;59671;-61
2023/09/28 11:02:40;;;;;;;4.60;4.10;;;;;;;33.72;22.30;97875.13;110031;1244;59696;-61
2023/09/28 11:05:09;;;;;;;5.70;4.00;;;;;;;34.16;22.22;97867.60;110104;1241;71982;-61
2023/09/28 11:07:40;;;;;;;5.50;4.70;;;;;;;34.82;21.88;97861.27;110091;1244;69852;-61
2023/09/28 11:10:09;;;;;;;5.50;4.30;;;;;;;34.88;22.22;97864.80;110095;1244;69544;-61
2023/09/28 11:12:41;;;;;;;4.90;4.50;;;;;;;34.47;21.99;97861.70;110089;1244;59678;-62
2023/09/28 11:15:14;;;;;;;5.30;4.60;;;;;;;33.82;22.06;97869.08;110169;1241;59710;-62
2023/09/28 11:17:44;;;;;;;4.60;4.10;;;;;;;33.29;22.37;97866.53;110020;1243;72000;-62
2023/09/28 11:20:14;;;;;;;4.50;4.00;;;;;;;32.88;22.38;97863.92;109971;1243;70783;-60
2023/09/28 11:22:43;;;;;;;4.90;4.10;;;;;;;31.94;23.98;97862.06;110042;1244;70285;-61
2023/09/28 11:25:13;;;;;;;5.60;4.10;;;;;;;31.67;24.79;97863.38;110023;1243;60153;-62
2023/09/28 11:27:58;;;;;;;5.00;4.20;;;;;;;31.48;25.25;97862.55;109881;1244;59678;-61
2023/09/28 11:30:28;;;;;;;5.60;4.50;;;;;;;31.08;25.75;97860.85;110126;1244;70644;-62
2023/09/28 11:32:57;;;;;;;6.30;5.70;;;;;;;30.84;25.92;97856.41;110140;1244;69855;-62
2023/09/28 11:35:26;;;;;;;5.90;5.30;;;;;;;30.32;26.12;97852.09;110127;1244;69862;-62
2023/09/28 11:38:00;;;;;;;6.20;4.80;;;;;;;30.04;26.76;97854.66;110146;1243;59752;-62
2023/09/28 11:40:30;;;;;;;5.10;4.50;;;;;;;29.80;27.20;97852.23;110154;1241;59612;-60
2023/09/28 11:43:00;;;;;;;4.80;3.90;;;;;;;30.30;26.85;97851.86;110106;1241;72000;-60